sensor_id;sensor_type;location;lat;lon;timestamp;P1;durP1;ratioP1;P2;durP2;ratioP2
71977;SDS011;59848;48.158;11.512;2022-08-05T00:01:11;6.22;;;4.82;;
71977;SDS011;59848;48.158;11.512;2022-08-05T00:03:44;5.53;;;4.65;;
71977;SDS011;59848;48.158;11.512;2022-08-05T00:06:11;5.10;;;4.60;;
71977;SDS011;59848;48.158;11.512;2022-08-05T00:08:37;5.63;;;4.78;;
71977;SDS011;59848;48.158;11.512;2022-08-05T00:11:04;7.35;;;4.90;;
71977;SDS011;59848;48.158;11.512;2022-08-05T00:13:32;6.90;;;4.88;;
71977;SDS011;59848;48.158;11.512;2022-08-05T00:15:58;7.80;;;4.90;;
71977;SDS011;59848;48.158;11.512;2022-08-05T00:18:23;9.00;;;5.10;;
71977;SDS011;59848;48.158;11.512;2022-08-05T00:20:49;6.20;;;4.60;;
71977;SDS011;59848;48.158;11.512;2022-08-05T00:23:15;5.18;;;4.68;;
71977;SDS011;59848;48.158;11.512;2022-08-05T00:25:41;6.32;;;4.60;;
71977;SDS011;59848;48.158;11.512;2022-08-05T00:28:07;6.97;;;4.80;;
71977;SDS011;59848;48.158;11.512;2022-08-05T00:30:32;7.05;;;4.80;;
71977;SDS011;59848;48.158;11.512;2022-08-05T00:32:58;5.07;;;4.25;;
71977;SDS011;59848;48.158;11.512;2022-08-05T00:35:23;5.90;;;4.57;;
71977;SDS011;59848;48.158;11.512;2022-08-05T00:37:49;5.15;;;4.47;;
71977;SDS011;59848;48.158;11.512;2022-08-05T00:40:14;5.45;;;4.47;;
71977;SDS011;59848;48.158;11.512;2022-08-05T00:42:40;6.70;;;4.30;;
71977;SDS011;59848;48.158;11.512;2022-08-05T00:45:06;6.10;;;4.30;;
71977;SDS011;59848;48.158;11.512;2022-08-05T00:47:34;7.53;;;4.85;;
71977;SDS011;59848;48.158;11.512;2022-08-05T00:50:00;6.53;;;4.72;;
71977;SDS011;59848;48.158;11.512;2022-08-05T00:52:25;7.63;;;4.50;;
71977;SDS011;59848;48.158;11.512;2022-08-05T00:54:51;4.72;;;4.20;;
71977;SDS011;59848;48.158;11.512;2022-08-05T00:57:17;5.82;;;5.05;;
71977;SDS011;59848;48.158;11.512;2022-08-05T00:59:42;5.38;;;4.47;;
71977;SDS011;59848;48.158;11.512;2022-08-05T01:02:08;6.22;;;4.90;;
71977;SDS011;59848;48.158;11.512;2022-08-05T01:04:35;6.40;;;4.60;;
71977;SDS011;59848;48.158;11.512;2022-08-05T01:07:00;6.80;;;5.03;;
71977;SDS011;59848;48.158;11.512;2022-08-05T01:09:26;6.63;;;4.47;;
71977;SDS011;59848;48.158;11.512;2022-08-05T01:11:52;6.57;;;4.85;;
71977;SDS011;59848;48.158;11.512;2022-08-05T01:14:30;4.90;;;4.30;;
71977;SDS011;59848;48.158;11.512;2022-08-05T01:17:05;6.82;;;4.80;;
71977;SDS011;59848;48.158;11.512;2022-08-05T01:19:51;6.50;;;4.78;;
71977;SDS011;59848;48.158;11.512;2022-08-05T01:22:37;5.90;;;4.70;;
71977;SDS011;59848;48.158;11.512;2022-08-05T01:28:22;6.82;;;4.85;;
71977;SDS011;59848;48.158;11.512;2022-08-05T01:30:52;5.13;;;4.32;;
71977;SDS011;59848;48.158;11.512;2022-08-05T01:33:23;5.97;;;4.35;;
71977;SDS011;59848;48.158;11.512;2022-08-05T01:35:55;5.10;;;4.60;;
71977;SDS011;59848;48.158;11.512;2022-08-05T01:38:22;5.82;;;4.32;;
71977;SDS011;59848;48.158;11.512;2022-08-05T01:40:50;5.22;;;4.35;;
71977;SDS011;59848;48.158;11.512;2022-08-05T01:43:16;5.55;;;4.57;;
71977;SDS011;59848;48.158;11.512;2022-08-05T01:45:44;6.65;;;4.40;;
71977;SDS011;59848;48.158;11.512;2022-08-05T01:48:10;10.63;;;4.95;;
71977;SDS011;59848;48.158;11.512;2022-08-05T01:50:38;5.43;;;4.50;;
71977;SDS011;59848;48.158;11.512;2022-08-05T01:53:14;6.25;;;4.60;;
71977;SDS011;59848;48.158;11.512;2022-08-05T01:55:41;8.23;;;4.40;;
71977;SDS011;59848;48.158;11.512;2022-08-05T01:58:09;6.45;;;4.47;;
71977;SDS011;59848;48.158;11.512;2022-08-05T02:00:37;7.50;;;4.47;;
71977;SDS011;59848;48.158;11.512;2022-08-05T02:03:08;8.07;;;4.90;;
71977;SDS011;59848;48.158;11.512;2022-08-05T02:05:40;5.90;;;4.40;;
71977;SDS011;59848;48.158;11.512;2022-08-05T02:08:08;5.30;;;4.80;;
71977;SDS011;59848;48.158;11.512;2022-08-05T02:10:35;7.03;;;5.30;;
71977;SDS011;59848;48.158;11.512;2022-08-05T02:13:13;5.15;;;4.20;;
71977;SDS011;59848;48.158;11.512;2022-08-05T02:16:00;5.70;;;4.65;;
71977;SDS011;59848;48.158;11.512;2022-08-05T02:18:39;5.10;;;4.60;;
71977;SDS011;59848;48.158;11.512;2022-08-05T02:21:08;5.45;;;4.20;;
71977;SDS011;59848;48.158;11.512;2022-08-05T02:23:49;5.68;;;5.10;;
71977;SDS011;59848;48.158;11.512;2022-08-05T02:26:26;5.47;;;4.80;;
71977;SDS011;59848;48.158;11.512;2022-08-05T02:28:59;5.45;;;4.63;;
71977;SDS011;59848;48.158;11.512;2022-08-05T02:31:27;6.70;;;4.93;;
71977;SDS011;59848;48.158;11.512;2022-08-05T02:34:00;5.65;;;4.40;;
71977;SDS011;59848;48.158;11.512;2022-08-05T02:36:29;5.97;;;4.65;;
71977;SDS011;59848;48.158;11.512;2022-08-05T02:38:58;5.10;;;4.60;;
71977;SDS011;59848;48.158;11.512;2022-08-05T02:41:25;5.25;;;4.75;;
71977;SDS011;59848;48.158;11.512;2022-08-05T02:43:52;7.20;;;4.97;;
71977;SDS011;59848;48.158;11.512;2022-08-05T02:46:21;5.72;;;4.63;;
71977;SDS011;59848;48.158;11.512;2022-08-05T02:48:47;5.75;;;4.82;;
71977;SDS011;59848;48.158;11.512;2022-08-05T02:51:14;7.03;;;5.13;;
71977;SDS011;59848;48.158;11.512;2022-08-05T02:53:40;5.53;;;4.45;;
71977;SDS011;59848;48.158;11.512;2022-08-05T02:56:07;6.68;;;5.20;;
71977;SDS011;59848;48.158;11.512;2022-08-05T02:58:38;5.50;;;4.47;;
71977;SDS011;59848;48.158;11.512;2022-08-05T03:01:05;5.18;;;4.25;;
71977;SDS011;59848;48.158;11.512;2022-08-05T03:03:33;11.65;;;6.07;;
71977;SDS011;59848;48.158;11.512;2022-08-05T03:06:06;8.55;;;4.47;;
71977;SDS011;59848;48.158;11.512;2022-08-05T03:08:34;5.40;;;4.82;;
71977;SDS011;59848;48.158;11.512;2022-08-05T03:11:01;5.63;;;4.78;;
71977;SDS011;59848;48.158;11.512;2022-08-05T03:13:27;8.18;;;5.38;;
71977;SDS011;59848;48.158;11.512;2022-08-05T03:15:52;7.63;;;4.97;;
71977;SDS011;59848;48.158;11.512;2022-08-05T03:18:18;6.45;;;4.93;;
71977;SDS011;59848;48.158;11.512;2022-08-05T03:20:43;6.50;;;4.78;;
71977;SDS011;59848;48.158;11.512;2022-08-05T03:23:09;8.10;;;4.57;;
71977;SDS011;59848;48.158;11.512;2022-08-05T03:25:36;4.82;;;4.18;;
71977;SDS011;59848;48.158;11.512;2022-08-05T03:28:02;5.07;;;4.57;;
71977;SDS011;59848;48.158;11.512;2022-08-05T03:30:30;6.55;;;4.28;;
71977;SDS011;59848;48.158;11.512;2022-08-05T03:32:59;5.32;;;4.70;;
71977;SDS011;59848;48.158;11.512;2022-08-05T03:35:26;5.40;;;4.63;;
71977;SDS011;59848;48.158;11.512;2022-08-05T03:37:56;7.13;;;4.85;;
71977;SDS011;59848;48.158;11.512;2022-08-05T03:40:22;7.32;;;4.78;;
71977;SDS011;59848;48.158;11.512;2022-08-05T03:42:48;7.95;;;4.90;;
71977;SDS011;59848;48.158;11.512;2022-08-05T03:45:14;5.47;;;4.80;;
71977;SDS011;59848;48.158;11.512;2022-08-05T03:47:39;7.88;;;5.43;;
71977;SDS011;59848;48.158;11.512;2022-08-05T03:50:05;6.32;;;4.78;;
71977;SDS011;59848;48.158;11.512;2022-08-05T03:52:33;7.97;;;4.90;;
71977;SDS011;59848;48.158;11.512;2022-08-05T03:55:07;7.57;;;5.30;;
71977;SDS011;59848;48.158;11.512;2022-08-05T03:57:36;5.72;;;4.97;;
71977;SDS011;59848;48.158;11.512;2022-08-05T04:00:05;7.95;;;5.13;;
71977;SDS011;59848;48.158;11.512;2022-08-05T04:02:33;6.55;;;5.10;;
71977;SDS011;59848;48.158;11.512;2022-08-05T04:05:00;7.15;;;4.93;;
71977;SDS011;59848;48.158;11.512;2022-08-05T04:07:27;6.60;;;4.78;;
71977;SDS011;59848;48.158;11.512;2022-08-05T04:09:53;6.45;;;4.82;;
71977;SDS011;59848;48.158;11.512;2022-08-05T04:12:20;5.53;;;4.88;;
71977;SDS011;59848;48.158;11.512;2022-08-05T04:14:46;7.72;;;4.93;;
71977;SDS011;59848;48.158;11.512;2022-08-05T04:17:12;5.43;;;4.88;;
71977;SDS011;59848;48.158;11.512;2022-08-05T04:19:42;6.22;;;4.40;;
71977;SDS011;59848;48.158;11.512;2022-08-05T04:22:09;7.00;;;4.90;;
71977;SDS011;59848;48.158;11.512;2022-08-05T04:24:36;7.20;;;4.80;;
71977;SDS011;59848;48.158;11.512;2022-08-05T04:27:02;6.32;;;5.03;;
71977;SDS011;59848;48.158;11.512;2022-08-05T04:29:28;5.78;;;4.82;;
71977;SDS011;59848;48.158;11.512;2022-08-05T04:31:53;5.80;;;4.40;;
71977;SDS011;59848;48.158;11.512;2022-08-05T04:34:19;5.95;;;4.72;;
71977;SDS011;59848;48.158;11.512;2022-08-05T04:36:44;5.38;;;4.47;;
71977;SDS011;59848;48.158;11.512;2022-08-05T04:39:10;5.22;;;4.75;;
71977;SDS011;59848;48.158;11.512;2022-08-05T04:41:35;6.47;;;4.22;;
71977;SDS011;59848;48.158;11.512;2022-08-05T04:44:01;5.65;;;4.35;;
71977;SDS011;59848;48.158;11.512;2022-08-05T04:46:27;7.32;;;4.40;;
71977;SDS011;59848;48.158;11.512;2022-08-05T04:48:52;5.32;;;4.40;;
71977;SDS011;59848;48.158;11.512;2022-08-05T04:51:18;4.95;;;4.18;;
71977;SDS011;59848;48.158;11.512;2022-08-05T04:53:43;6.03;;;4.20;;
71977;SDS011;59848;48.158;11.512;2022-08-05T04:56:09;5.75;;;4.15;;
71977;SDS011;59848;48.158;11.512;2022-08-05T04:58:34;4.88;;;3.90;;
71977;SDS011;59848;48.158;11.512;2022-08-05T05:01:00;5.90;;;4.10;;
71977;SDS011;59848;48.158;11.512;2022-08-05T05:03:26;4.70;;;3.90;;
71977;SDS011;59848;48.158;11.512;2022-08-05T05:05:51;4.85;;;4.10;;
71977;SDS011;59848;48.158;11.512;2022-08-05T05:08:17;4.60;;;3.80;;
71977;SDS011;59848;48.158;11.512;2022-08-05T05:10:44;6.47;;;3.90;;
71977;SDS011;59848;48.158;11.512;2022-08-05T05:13:11;5.30;;;3.97;;
71977;SDS011;59848;48.158;11.512;2022-08-05T05:15:39;4.90;;;3.75;;
71977;SDS011;59848;48.158;11.512;2022-08-05T05:18:05;4.50;;;3.75;;
71977;SDS011;59848;48.158;11.512;2022-08-05T05:20:31;4.65;;;3.72;;
71977;SDS011;59848;48.158;11.512;2022-08-05T05:22:57;5.80;;;4.18;;
71977;SDS011;59848;48.158;11.512;2022-08-05T05:25:25;4.63;;;4.00;;
71977;SDS011;59848;48.158;11.512;2022-08-05T05:27:51;4.22;;;3.72;;
71977;SDS011;59848;48.158;11.512;2022-08-05T05:30:17;6.15;;;4.32;;
71977;SDS011;59848;48.158;11.512;2022-08-05T05:32:43;3.90;;;3.60;;
71977;SDS011;59848;48.158;11.512;2022-08-05T05:35:09;4.93;;;3.83;;
71977;SDS011;59848;48.158;11.512;2022-08-05T05:37:45;5.43;;;3.58;;
71977;SDS011;59848;48.158;11.512;2022-08-05T05:40:18;5.55;;;3.40;;
71977;SDS011;59848;48.158;11.512;2022-08-05T05:42:45;3.80;;;3.30;;
71977;SDS011;59848;48.158;11.512;2022-08-05T05:45:12;6.40;;;3.80;;
71977;SDS011;59848;48.158;11.512;2022-08-05T05:47:38;4.30;;;3.42;;
71977;SDS011;59848;48.158;11.512;2022-08-05T05:50:05;4.25;;;3.67;;
71977;SDS011;59848;48.158;11.512;2022-08-05T05:52:31;4.50;;;3.47;;
71977;SDS011;59848;48.158;11.512;2022-08-05T05:55:00;6.20;;;3.42;;
71977;SDS011;59848;48.158;11.512;2022-08-05T05:57:27;4.13;;;3.45;;
71977;SDS011;59848;48.158;11.512;2022-08-05T05:59:52;4.60;;;3.50;;
71977;SDS011;59848;48.158;11.512;2022-08-05T06:02:18;3.95;;;3.10;;
71977;SDS011;59848;48.158;11.512;2022-08-05T06:04:44;5.22;;;3.60;;
71977;SDS011;59848;48.158;11.512;2022-08-05T06:07:09;5.20;;;3.40;;
71977;SDS011;59848;48.158;11.512;2022-08-05T06:09:35;4.63;;;3.42;;
71977;SDS011;59848;48.158;11.512;2022-08-05T06:12:00;3.75;;;3.25;;
71977;SDS011;59848;48.158;11.512;2022-08-05T06:14:26;6.38;;;3.47;;
71977;SDS011;59848;48.158;11.512;2022-08-05T06:16:52;5.57;;;3.42;;
71977;SDS011;59848;48.158;11.512;2022-08-05T06:19:17;5.82;;;3.50;;
71977;SDS011;59848;48.158;11.512;2022-08-05T06:21:43;6.78;;;3.50;;
71977;SDS011;59848;48.158;11.512;2022-08-05T06:24:10;5.40;;;3.05;;
71977;SDS011;59848;48.158;11.512;2022-08-05T06:26:35;5.15;;;3.50;;
71977;SDS011;59848;48.158;11.512;2022-08-05T06:29:01;9.20;;;3.22;;
71977;SDS011;59848;48.158;11.512;2022-08-05T06:31:27;3.85;;;3.10;;
71977;SDS011;59848;48.158;11.512;2022-08-05T06:33:52;6.53;;;3.30;;
71977;SDS011;59848;48.158;11.512;2022-08-05T06:36:18;3.90;;;3.05;;
71977;SDS011;59848;48.158;11.512;2022-08-05T06:38:44;5.22;;;3.38;;
71977;SDS011;59848;48.158;11.512;2022-08-05T06:41:10;5.15;;;3.20;;
71977;SDS011;59848;48.158;11.512;2022-08-05T06:43:36;6.65;;;3.38;;
71977;SDS011;59848;48.158;11.512;2022-08-05T06:46:01;4.95;;;3.17;;
71977;SDS011;59848;48.158;11.512;2022-08-05T06:48:27;5.80;;;3.30;;
71977;SDS011;59848;48.158;11.512;2022-08-05T06:50:53;3.90;;;3.33;;
71977;SDS011;59848;48.158;11.512;2022-08-05T06:53:18;4.78;;;3.38;;
71977;SDS011;59848;48.158;11.512;2022-08-05T06:55:44;4.50;;;3.25;;
71977;SDS011;59848;48.158;11.512;2022-08-05T06:58:09;3.55;;;3.22;;
71977;SDS011;59848;48.158;11.512;2022-08-05T07:00:35;4.78;;;3.10;;
71977;SDS011;59848;48.158;11.512;2022-08-05T07:03:00;5.10;;;3.50;;
71977;SDS011;59848;48.158;11.512;2022-08-05T07:05:26;5.65;;;3.28;;
71977;SDS011;59848;48.158;11.512;2022-08-05T07:07:51;4.40;;;3.28;;
71977;SDS011;59848;48.158;11.512;2022-08-05T07:10:17;4.13;;;3.40;;
71977;SDS011;59848;48.158;11.512;2022-08-05T07:12:43;4.80;;;3.40;;
71977;SDS011;59848;48.158;11.512;2022-08-05T07:15:27;3.88;;;3.47;;
71977;SDS011;59848;48.158;11.512;2022-08-05T07:18:11;4.53;;;3.38;;
71977;SDS011;59848;48.158;11.512;2022-08-05T07:20:36;5.50;;;3.20;;
71977;SDS011;59848;48.158;11.512;2022-08-05T07:23:02;3.67;;;3.13;;
71977;SDS011;59848;48.158;11.512;2022-08-05T07:25:27;4.65;;;3.20;;
71977;SDS011;59848;48.158;11.512;2022-08-05T07:27:54;4.53;;;3.40;;
71977;SDS011;59848;48.158;11.512;2022-08-05T07:30:20;5.45;;;3.65;;
71977;SDS011;59848;48.158;11.512;2022-08-05T07:32:45;4.40;;;3.40;;
71977;SDS011;59848;48.158;11.512;2022-08-05T07:35:11;4.25;;;3.60;;
71977;SDS011;59848;48.158;11.512;2022-08-05T07:37:38;4.68;;;3.55;;
71977;SDS011;59848;48.158;11.512;2022-08-05T07:40:04;4.03;;;3.17;;
71977;SDS011;59848;48.158;11.512;2022-08-05T07:42:30;5.63;;;4.00;;
71977;SDS011;59848;48.158;11.512;2022-08-05T07:44:56;6.05;;;3.35;;
71977;SDS011;59848;48.158;11.512;2022-08-05T07:47:21;4.50;;;3.53;;
71977;SDS011;59848;48.158;11.512;2022-08-05T07:49:47;4.70;;;3.47;;
71977;SDS011;59848;48.158;11.512;2022-08-05T07:52:16;5.03;;;3.20;;
71977;SDS011;59848;48.158;11.512;2022-08-05T07:54:42;4.55;;;3.40;;
71977;SDS011;59848;48.158;11.512;2022-08-05T07:57:07;5.18;;;3.80;;
71977;SDS011;59848;48.158;11.512;2022-08-05T07:59:33;4.97;;;3.38;;
71977;SDS011;59848;48.158;11.512;2022-08-05T08:01:58;7.20;;;3.97;;
71977;SDS011;59848;48.158;11.512;2022-08-05T08:04:26;7.68;;;3.83;;
71977;SDS011;59848;48.158;11.512;2022-08-05T08:06:52;7.43;;;4.25;;
71977;SDS011;59848;48.158;11.512;2022-08-05T08:09:17;5.28;;;3.95;;
71977;SDS011;59848;48.158;11.512;2022-08-05T08:11:43;7.75;;;4.10;;
71977;SDS011;59848;48.158;11.512;2022-08-05T08:14:09;5.22;;;3.80;;
71977;SDS011;59848;48.158;11.512;2022-08-05T08:16:34;5.30;;;4.22;;
71977;SDS011;59848;48.158;11.512;2022-08-05T08:19:00;5.65;;;3.90;;
71977;SDS011;59848;48.158;11.512;2022-08-05T08:21:25;6.40;;;3.90;;
71977;SDS011;59848;48.158;11.512;2022-08-05T08:23:51;7.90;;;4.40;;
71977;SDS011;59848;48.158;11.512;2022-08-05T08:26:16;4.93;;;4.45;;
71977;SDS011;59848;48.158;11.512;2022-08-05T08:28:42;5.75;;;4.30;;
71977;SDS011;59848;48.158;11.512;2022-08-05T08:31:07;5.45;;;4.70;;
71977;SDS011;59848;48.158;11.512;2022-08-05T08:33:33;5.15;;;4.03;;
71977;SDS011;59848;48.158;11.512;2022-08-05T08:35:59;6.70;;;4.57;;
71977;SDS011;59848;48.158;11.512;2022-08-05T08:38:25;7.70;;;4.35;;
71977;SDS011;59848;48.158;11.512;2022-08-05T08:40:50;9.13;;;4.68;;
71977;SDS011;59848;48.158;11.512;2022-08-05T08:43:16;6.32;;;4.40;;
71977;SDS011;59848;48.158;11.512;2022-08-05T08:45:43;6.95;;;4.20;;
71977;SDS011;59848;48.158;11.512;2022-08-05T08:48:11;6.63;;;4.68;;
71977;SDS011;59848;48.158;11.512;2022-08-05T08:50:40;6.15;;;4.20;;
71977;SDS011;59848;48.158;11.512;2022-08-05T08:53:07;8.07;;;4.50;;
71977;SDS011;59848;48.158;11.512;2022-08-05T08:55:35;7.70;;;4.50;;
71977;SDS011;59848;48.158;11.512;2022-08-05T08:58:02;5.85;;;4.80;;
71977;SDS011;59848;48.158;11.512;2022-08-05T09:00:28;6.72;;;4.20;;
71977;SDS011;59848;48.158;11.512;2022-08-05T09:02:55;6.03;;;4.40;;
71977;SDS011;59848;48.158;11.512;2022-08-05T09:05:21;12.38;;;4.65;;
71977;SDS011;59848;48.158;11.512;2022-08-05T09:07:49;6.88;;;4.30;;
71977;SDS011;59848;48.158;11.512;2022-08-05T09:10:16;6.78;;;4.18;;
71977;SDS011;59848;48.158;11.512;2022-08-05T09:12:42;8.43;;;4.57;;
71977;SDS011;59848;48.158;11.512;2022-08-05T09:15:08;6.60;;;4.38;;
71977;SDS011;59848;48.158;11.512;2022-08-05T09:17:34;7.22;;;3.90;;
71977;SDS011;59848;48.158;11.512;2022-08-05T09:20:00;5.63;;;4.32;;
71977;SDS011;59848;48.158;11.512;2022-08-05T09:22:26;8.23;;;4.22;;
71977;SDS011;59848;48.158;11.512;2022-08-05T09:24:58;5.90;;;4.18;;
71977;SDS011;59848;48.158;11.512;2022-08-05T09:27:29;7.63;;;4.00;;
71977;SDS011;59848;48.158;11.512;2022-08-05T09:32:22;8.52;;;3.97;;
71977;SDS011;59848;48.158;11.512;2022-08-05T09:35:08;7.10;;;4.03;;
71977;SDS011;59848;48.158;11.512;2022-08-05T09:37:35;8.07;;;4.28;;
71977;SDS011;59848;48.158;11.512;2022-08-05T09:40:01;7.15;;;4.05;;
71977;SDS011;59848;48.158;11.512;2022-08-05T09:42:27;8.30;;;3.80;;
71977;SDS011;59848;48.158;11.512;2022-08-05T09:45:06;5.80;;;3.92;;
71977;SDS011;59848;48.158;11.512;2022-08-05T09:47:33;6.75;;;4.05;;
71977;SDS011;59848;48.158;11.512;2022-08-05T09:49:59;5.70;;;3.72;;
71977;SDS011;59848;48.158;11.512;2022-08-05T09:54:59;8.90;;;3.55;;
71977;SDS011;59848;48.158;11.512;2022-08-05T09:59:59;5.63;;;3.95;;
71977;SDS011;59848;48.158;11.512;2022-08-05T10:02:29;7.63;;;3.65;;
71977;SDS011;59848;48.158;11.512;2022-08-05T10:05:03;6.15;;;4.00;;
71977;SDS011;59848;48.158;11.512;2022-08-05T10:13:04;5.65;;;3.65;;
71977;SDS011;59848;48.158;11.512;2022-08-05T10:15:32;10.75;;;3.95;;
71977;SDS011;59848;48.158;11.512;2022-08-05T10:20:43;9.88;;;3.72;;
71977;SDS011;59848;48.158;11.512;2022-08-05T10:23:14;4.20;;;3.22;;
71977;SDS011;59848;48.158;11.512;2022-08-05T10:25:42;6.38;;;3.17;;
71977;SDS011;59848;48.158;11.512;2022-08-05T10:28:08;8.10;;;3.22;;
71977;SDS011;59848;48.158;11.512;2022-08-05T10:30:34;6.72;;;3.78;;
71977;SDS011;59848;48.158;11.512;2022-08-05T10:33:00;6.00;;;3.33;;
71977;SDS011;59848;48.158;11.512;2022-08-05T10:35:26;4.60;;;3.72;;
71977;SDS011;59848;48.158;11.512;2022-08-05T10:37:52;4.70;;;3.30;;
71977;SDS011;59848;48.158;11.512;2022-08-05T10:40:25;11.48;;;4.30;;
71977;SDS011;59848;48.158;11.512;2022-08-05T10:42:53;4.45;;;3.42;;
71977;SDS011;59848;48.158;11.512;2022-08-05T10:45:25;7.55;;;3.03;;
71977;SDS011;59848;48.158;11.512;2022-08-05T10:47:52;6.50;;;3.13;;
71977;SDS011;59848;48.158;11.512;2022-08-05T10:50:18;5.07;;;3.72;;
71977;SDS011;59848;48.158;11.512;2022-08-05T10:52:45;8.63;;;3.33;;
71977;SDS011;59848;48.158;11.512;2022-08-05T10:55:21;5.70;;;3.20;;
71977;SDS011;59848;48.158;11.512;2022-08-05T10:57:48;5.13;;;3.60;;
71977;SDS011;59848;48.158;11.512;2022-08-05T11:00:32;5.45;;;3.30;;
71977;SDS011;59848;48.158;11.512;2022-08-05T11:05:29;4.20;;;3.00;;
71977;SDS011;59848;48.158;11.512;2022-08-05T11:07:59;4.75;;;3.22;;
71977;SDS011;59848;48.158;11.512;2022-08-05T11:10:35;5.30;;;3.20;;
71977;SDS011;59848;48.158;11.512;2022-08-05T11:13:04;5.30;;;3.42;;
71977;SDS011;59848;48.158;11.512;2022-08-05T11:18:22;6.30;;;3.58;;
71977;SDS011;59848;48.158;11.512;2022-08-05T11:20:54;4.25;;;3.17;;
71977;SDS011;59848;48.158;11.512;2022-08-05T11:23:30;3.47;;;3.17;;
71977;SDS011;59848;48.158;11.512;2022-08-05T11:25:59;5.95;;;2.88;;
71977;SDS011;59848;48.158;11.512;2022-08-05T11:41:03;4.95;;;3.10;;
71977;SDS011;59848;48.158;11.512;2022-08-05T11:43:30;5.50;;;3.13;;
71977;SDS011;59848;48.158;11.512;2022-08-05T11:45:56;5.03;;;3.20;;
71977;SDS011;59848;48.158;11.512;2022-08-05T11:48:23;4.25;;;2.65;;
71977;SDS011;59848;48.158;11.512;2022-08-05T11:50:49;4.07;;;2.80;;
71977;SDS011;59848;48.158;11.512;2022-08-05T11:53:16;4.07;;;2.88;;
71977;SDS011;59848;48.158;11.512;2022-08-05T11:55:52;5.53;;;2.90;;
71977;SDS011;59848;48.158;11.512;2022-08-05T11:58:24;6.70;;;3.30;;
71977;SDS011;59848;48.158;11.512;2022-08-05T12:01:01;5.38;;;3.00;;
71977;SDS011;59848;48.158;11.512;2022-08-05T12:03:44;4.22;;;2.92;;
71977;SDS011;59848;48.158;11.512;2022-08-05T12:06:13;4.00;;;3.03;;
71977;SDS011;59848;48.158;11.512;2022-08-05T12:11:16;3.88;;;3.05;;
71977;SDS011;59848;48.158;11.512;2022-08-05T12:13:44;7.13;;;3.40;;
71977;SDS011;59848;48.158;11.512;2022-08-05T12:16:26;5.60;;;2.80;;
71977;SDS011;59848;48.158;11.512;2022-08-05T12:18:53;5.20;;;2.92;;
71977;SDS011;59848;48.158;11.512;2022-08-05T12:21:28;4.40;;;2.92;;
71977;SDS011;59848;48.158;11.512;2022-08-05T12:23:58;7.05;;;3.17;;
71977;SDS011;59848;48.158;11.512;2022-08-05T12:26:36;8.45;;;3.13;;
71977;SDS011;59848;48.158;11.512;2022-08-05T12:29:07;4.85;;;2.97;;
71977;SDS011;59848;48.158;11.512;2022-08-05T12:31:35;3.72;;;2.88;;
71977;SDS011;59848;48.158;11.512;2022-08-05T12:34:01;3.45;;;2.70;;
71977;SDS011;59848;48.158;11.512;2022-08-05T12:36:29;5.88;;;3.08;;
71977;SDS011;59848;48.158;11.512;2022-08-05T12:38:56;5.55;;;3.15;;
71977;SDS011;59848;48.158;11.512;2022-08-05T12:41:22;5.25;;;2.95;;
71977;SDS011;59848;48.158;11.512;2022-08-05T12:43:56;4.63;;;2.97;;
71977;SDS011;59848;48.158;11.512;2022-08-05T12:46:24;3.92;;;3.10;;
71977;SDS011;59848;48.158;11.512;2022-08-05T12:49:02;6.15;;;3.00;;
71977;SDS011;59848;48.158;11.512;2022-08-05T12:51:30;7.60;;;2.95;;
71977;SDS011;59848;48.158;11.512;2022-08-05T12:54:07;3.80;;;2.70;;
71977;SDS011;59848;48.158;11.512;2022-08-05T12:56:33;3.92;;;2.80;;
71977;SDS011;59848;48.158;11.512;2022-08-05T12:59:09;7.70;;;3.20;;
71977;SDS011;59848;48.158;11.512;2022-08-05T13:01:42;5.15;;;2.92;;
71977;SDS011;59848;48.158;11.512;2022-08-05T13:04:10;6.22;;;3.22;;
71977;SDS011;59848;48.158;11.512;2022-08-05T13:06:42;6.97;;;3.00;;
71977;SDS011;59848;48.158;11.512;2022-08-05T13:09:09;6.05;;;3.30;;
71977;SDS011;59848;48.158;11.512;2022-08-05T13:11:37;4.25;;;2.70;;
71977;SDS011;59848;48.158;11.512;2022-08-05T13:14:08;5.07;;;2.95;;
71977;SDS011;59848;48.158;11.512;2022-08-05T13:16:46;6.15;;;3.50;;
71977;SDS011;59848;48.158;11.512;2022-08-05T13:19:13;5.90;;;3.10;;
71977;SDS011;59848;48.158;11.512;2022-08-05T13:21:39;6.93;;;3.15;;
71977;SDS011;59848;48.158;11.512;2022-08-05T13:24:05;4.18;;;2.95;;
71977;SDS011;59848;48.158;11.512;2022-08-05T13:26:31;5.13;;;3.00;;
71977;SDS011;59848;48.158;11.512;2022-08-05T13:28:57;5.63;;;3.30;;
71977;SDS011;59848;48.158;11.512;2022-08-05T13:31:22;7.65;;;2.97;;
71977;SDS011;59848;48.158;11.512;2022-08-05T13:33:48;5.35;;;3.10;;
71977;SDS011;59848;48.158;11.512;2022-08-05T13:36:13;7.07;;;3.10;;
71977;SDS011;59848;48.158;11.512;2022-08-05T13:38:39;4.00;;;2.70;;
71977;SDS011;59848;48.158;11.512;2022-08-05T13:41:04;3.28;;;2.80;;
71977;SDS011;59848;48.158;11.512;2022-08-05T13:43:30;7.00;;;3.28;;
71977;SDS011;59848;48.158;11.512;2022-08-05T13:45:55;4.47;;;3.13;;
71977;SDS011;59848;48.158;11.512;2022-08-05T13:48:21;4.72;;;3.08;;
71977;SDS011;59848;48.158;11.512;2022-08-05T13:50:46;7.18;;;3.05;;
71977;SDS011;59848;48.158;11.512;2022-08-05T13:53:12;5.13;;;3.10;;
71977;SDS011;59848;48.158;11.512;2022-08-05T13:55:37;7.78;;;3.10;;
71977;SDS011;59848;48.158;11.512;2022-08-05T13:58:03;3.30;;;2.75;;
71977;SDS011;59848;48.158;11.512;2022-08-05T14:00:28;3.97;;;2.88;;
71977;SDS011;59848;48.158;11.512;2022-08-05T14:02:57;4.50;;;3.25;;
71977;SDS011;59848;48.158;11.512;2022-08-05T14:05:22;3.35;;;3.03;;
71977;SDS011;59848;48.158;11.512;2022-08-05T14:07:48;4.97;;;3.08;;
71977;SDS011;59848;48.158;11.512;2022-08-05T14:10:18;9.68;;;3.25;;
71977;SDS011;59848;48.158;11.512;2022-08-05T14:12:47;3.08;;;2.72;;
71977;SDS011;59848;48.158;11.512;2022-08-05T14:15:13;4.97;;;3.30;;
71977;SDS011;59848;48.158;11.512;2022-08-05T14:17:39;3.95;;;2.92;;
71977;SDS011;59848;48.158;11.512;2022-08-05T14:20:05;4.80;;;3.17;;
71977;SDS011;59848;48.158;11.512;2022-08-05T14:22:32;3.97;;;2.80;;
71977;SDS011;59848;48.158;11.512;2022-08-05T14:24:57;5.07;;;2.65;;
71977;SDS011;59848;48.158;11.512;2022-08-05T14:27:23;4.68;;;2.53;;
71977;SDS011;59848;48.158;11.512;2022-08-05T14:29:49;3.28;;;2.60;;
71977;SDS011;59848;48.158;11.512;2022-08-05T14:32:14;3.45;;;2.58;;
71977;SDS011;59848;48.158;11.512;2022-08-05T14:34:40;5.85;;;2.95;;
71977;SDS011;59848;48.158;11.512;2022-08-05T14:37:05;4.55;;;2.90;;
71977;SDS011;59848;48.158;11.512;2022-08-05T14:39:31;6.50;;;3.47;;
71977;SDS011;59848;48.158;11.512;2022-08-05T14:41:57;3.25;;;2.95;;
71977;SDS011;59848;48.158;11.512;2022-08-05T14:44:23;6.55;;;2.67;;
71977;SDS011;59848;48.158;11.512;2022-08-05T14:46:48;2.90;;;2.60;;
71977;SDS011;59848;48.158;11.512;2022-08-05T14:49:14;2.80;;;2.58;;
71977;SDS011;59848;48.158;11.512;2022-08-05T14:51:39;3.22;;;2.50;;
71977;SDS011;59848;48.158;11.512;2022-08-05T14:54:05;4.70;;;2.40;;
71977;SDS011;59848;48.158;11.512;2022-08-05T14:56:31;4.38;;;2.53;;
71977;SDS011;59848;48.158;11.512;2022-08-05T14:58:57;3.22;;;2.58;;
71977;SDS011;59848;48.158;11.512;2022-08-05T15:01:23;3.22;;;2.42;;
71977;SDS011;59848;48.158;11.512;2022-08-05T15:03:48;2.95;;;2.63;;
71977;SDS011;59848;48.158;11.512;2022-08-05T15:06:14;3.22;;;2.50;;
71977;SDS011;59848;48.158;11.512;2022-08-05T15:08:40;3.05;;;2.55;;
71977;SDS011;59848;48.158;11.512;2022-08-05T15:11:07;2.70;;;2.50;;
71977;SDS011;59848;48.158;11.512;2022-08-05T15:13:32;3.58;;;2.30;;
71977;SDS011;59848;48.158;11.512;2022-08-05T15:15:59;3.88;;;2.55;;